Weather at Bow Island Airport

Public forecast

Using degrees Celsius for public forecast. Weather courtesy of forecast.io.

Closest aviation weather report (METAR) to Bow Island Airport

Closest report is Medicine Hat Regional Airport, 25.0 nm (46.3 km) ENE.

2024/07/21 03:00 (retrieved 11 minutes ago)

CYXH 210300Z 07006KT 4SM FU FEW270 29/14 A3019 RMK CI2 LAST STFD OBS NXT 211300Z SLP213 DENSITY ALT 4200FT

Closest aviation forecast (TAF) to Bow Island Airport

Forecast is more than 12 hours old.

Closest forecast is Malmstrom Air Force Base, 142.9 nm (264.7 km) S.

2024/07/19 13:57 (retrieved 2 days ago)

TAF KGFA 191300Z 1913/2019 VRB06KT 9999 SKC QNH3017INS BECMG 1920/1921 35009KT 9999 FEW120 QNH3016INS TX33/1922Z TN16/2012Z